This is the latest recevied weather packets stored in our database for station/object AD8PA-13. If no packets are shown the sender has not sent any weather packets the latest 10 day(s).
| Time | Temp. | Humidity | Pressure | Rain* | Wind** | Luminosity | Snow |
|---|---|---|---|---|---|---|---|
| 1777429644 | 11.11° C | 84% | 1014.9 hPa | 0 mm | - | - | - |
| 1777428743 | 11.67° C | 82% | 1014.5 hPa | 0 mm | - | - | - |
| 1777427842 | 11.67° C | 81% | 1013.9 hPa | 0 mm | - | - | - |
| 1777426939 | 11.67° C | 82% | 1013.7 hPa | 0 mm | - | - | - |
| 1777426040 | 12.22° C | 78% | 1013.5 hPa | 0 mm | - | - | - |
| 1777425138 | 12.78° C | 74% | 1013.5 hPa | 0 mm | - | - | - |
| 1777424237 | 13.33° C | 73% | 1013.5 hPa | 0 mm | - | - | - |
| 1777423332 | 13.89° C | 70% | 1013.4 hPa | 0 mm | - | - | - |
| 1777422429 | 14.44° C | 69% | 1013.4 hPa | 0 mm | - | - | - |
| 1777421526 | 15° C | 68% | 1013.6 hPa | 0 mm | - | - | - |
| 1777420620 | 15.56° C | 66% | 1013.5 hPa | 0 mm | - | - | - |
| 1777419721 | 16.11° C | 64% | 1013.4 hPa | 0 mm | - | - | - |
| 1777418816 | 17.22° C | 62% | 1013.3 hPa | 0 mm | - | - | - |
| 1777417912 | 16.67° C | 63% | 1013.6 hPa | 0 mm | - | - | - |
| 1777417012 | 17.22° C | 62% | 1013.1 hPa | 0 mm | - | - | - |
| 1777416109 | 17.22° C | 64% | 1013 hPa | 0 mm | - | - | - |
| 1777415208 | 18.33° C | 60% | 1012.8 hPa | 0 mm | - | - | - |
| 1777414304 | 18.33° C | 61% | 1012.7 hPa | 0 mm | - | - | - |
| 1777413402 | 17.22° C | 62% | 1012.8 hPa | 0 mm | - | - | - |
| 1777412499 | 17.78° C | 60% | 1012.4 hPa | 0 mm | - | - | - |
| 1777411597 | 17.78° C | 62% | 1012.4 hPa | 0 mm | - | - | - |
| 1777410691 | 17.78° C | 60% | 1012.6 hPa | 0 mm | - | - | - |
| 1777409792 | 17.78° C | 61% | 1012.4 hPa | 0 mm | - | - | - |
| 1777408891 | 17.78° C | 61% | 1012.4 hPa | 0 mm | - | - | - |
| 1777407989 | 17.22° C | 63% | 1012.1 hPa | 0 mm | - | - | - |
* Rain latest hour (hover to see other rain measurements)
** Current wind speed in m/s (hover to see current wind gust speed)